Aurelia, Iowa
Current Conditions -  °F | °C
As of 3:35 AM on Friday 28 Nov 2014 (Local Time) from KCKP Reporting Station
Clear Clear  
Wind Chill:   Ceiling: Unl
Heat Index: 16°   Visibility: 10mi
Dew Point: 14°   Wind: 5mph
Humidity: 91%   Direction: 140°SE
Pressure: 29.97"   Gusts: NA
Location:  42.71°N, 95.44°W
Report Text: KCKP 280935Z AUTO 14004KT 10SM CLR M09/M10 A2997 RMK AO2 T10871099
Loading
Personal Weather Stations






























Interactive Weather Map New forecast layout! Learn more

10-Day Weather Forecast

Advertisements
Track Severe Weather on mobile